sensor_id;sensor_type;location;lat;lon;timestamp;P1;durP1;ratioP1;P2;durP2;ratioP2
12474;SDS011;6302;42.624;23.334;2023-09-30T00:00:44;9.50;;;6.63;;
12474;SDS011;6302;42.624;23.334;2023-09-30T00:03:12;8.00;;;5.80;;
12474;SDS011;6302;42.624;23.334;2023-09-30T00:05:38;10.27;;;6.50;;
12474;SDS011;6302;42.624;23.334;2023-09-30T00:08:06;13.83;;;6.40;;
12474;SDS011;6302;42.624;23.334;2023-09-30T00:10:33;9.23;;;5.87;;
12474;SDS011;6302;42.624;23.334;2023-09-30T00:13:00;7.63;;;5.90;;
12474;SDS011;6302;42.624;23.334;2023-09-30T00:15:27;7.97;;;5.90;;
12474;SDS011;6302;42.624;23.334;2023-09-30T00:17:54;9.73;;;5.57;;
12474;SDS011;6302;42.624;23.334;2023-09-30T00:20:21;8.30;;;5.50;;
12474;SDS011;6302;42.624;23.334;2023-09-30T00:22:47;13.13;;;5.67;;
12474;SDS011;6302;42.624;23.334;2023-09-30T00:25:16;10.03;;;6.30;;
12474;SDS011;6302;42.624;23.334;2023-09-30T00:27:42;10.90;;;5.60;;
12474;SDS011;6302;42.624;23.334;2023-09-30T00:30:09;12.23;;;5.53;;
12474;SDS011;6302;42.624;23.334;2023-09-30T00:32:37;6.63;;;5.40;;
12474;SDS011;6302;42.624;23.334;2023-09-30T00:35:04;7.13;;;5.53;;
12474;SDS011;6302;42.624;23.334;2023-09-30T00:37:36;15.77;;;6.00;;
12474;SDS011;6302;42.624;23.334;2023-09-30T00:40:03;7.17;;;5.40;;
12474;SDS011;6302;42.624;23.334;2023-09-30T00:42:32;11.30;;;5.33;;
12474;SDS011;6302;42.624;23.334;2023-09-30T00:45:00;8.50;;;5.50;;
12474;SDS011;6302;42.624;23.334;2023-09-30T00:47:30;7.13;;;5.70;;
12474;SDS011;6302;42.624;23.334;2023-09-30T00:49:58;8.20;;;5.30;;
12474;SDS011;6302;42.624;23.334;2023-09-30T00:52:25;8.07;;;5.37;;
12474;SDS011;6302;42.624;23.334;2023-09-30T00:54:55;8.57;;;5.87;;
12474;SDS011;6302;42.624;23.334;2023-09-30T00:57:22;7.90;;;5.23;;
12474;SDS011;6302;42.624;23.334;2023-09-30T00:59:50;10.57;;;5.33;;
12474;SDS011;6302;42.624;23.334;2023-09-30T01:02:18;8.53;;;5.47;;
12474;SDS011;6302;42.624;23.334;2023-09-30T01:04:45;9.33;;;5.67;;
12474;SDS011;6302;42.624;23.334;2023-09-30T01:07:12;7.13;;;5.83;;
12474;SDS011;6302;42.624;23.334;2023-09-30T01:09:38;6.90;;;5.20;;
12474;SDS011;6302;42.624;23.334;2023-09-30T01:12:06;8.30;;;5.40;;
12474;SDS011;6302;42.624;23.334;2023-09-30T01:14:33;10.30;;;5.97;;
12474;SDS011;6302;42.624;23.334;2023-09-30T01:17:04;9.17;;;5.23;;
12474;SDS011;6302;42.624;23.334;2023-09-30T01:19:33;6.37;;;5.60;;
12474;SDS011;6302;42.624;23.334;2023-09-30T01:22:02;7.70;;;5.70;;
12474;SDS011;6302;42.624;23.334;2023-09-30T01:24:31;9.93;;;5.13;;
12474;SDS011;6302;42.624;23.334;2023-09-30T01:27:04;6.63;;;5.53;;
12474;SDS011;6302;42.624;23.334;2023-09-30T01:29:31;9.20;;;5.30;;
12474;SDS011;6302;42.624;23.334;2023-09-30T01:31:57;6.47;;;5.10;;
12474;SDS011;6302;42.624;23.334;2023-09-30T01:34:24;13.17;;;5.67;;
12474;SDS011;6302;42.624;23.334;2023-09-30T01:36:51;6.97;;;5.00;;
12474;SDS011;6302;42.624;23.334;2023-09-30T01:39:19;8.00;;;5.50;;
12474;SDS011;6302;42.624;23.334;2023-09-30T01:41:46;7.00;;;5.60;;
12474;SDS011;6302;42.624;23.334;2023-09-30T01:44:13;11.47;;;5.60;;
12474;SDS011;6302;42.624;23.334;2023-09-30T01:46:40;7.80;;;5.10;;
12474;SDS011;6302;42.624;23.334;2023-09-30T01:49:06;5.97;;;4.97;;
12474;SDS011;6302;42.624;23.334;2023-09-30T01:51:33;8.00;;;5.23;;
12474;SDS011;6302;42.624;23.334;2023-09-30T01:54:00;8.23;;;5.23;;
12474;SDS011;6302;42.624;23.334;2023-09-30T01:56:28;5.83;;;4.93;;
12474;SDS011;6302;42.624;23.334;2023-09-30T01:58:56;5.23;;;4.73;;
12474;SDS011;6302;42.624;23.334;2023-09-30T02:01:23;8.23;;;4.87;;
12474;SDS011;6302;42.624;23.334;2023-09-30T02:03:50;4.90;;;4.40;;
12474;SDS011;6302;42.624;23.334;2023-09-30T02:06:17;8.37;;;5.57;;
12474;SDS011;6302;42.624;23.334;2023-09-30T02:08:43;8.10;;;5.23;;
12474;SDS011;6302;42.624;23.334;2023-09-30T02:11:11;8.10;;;5.17;;
12474;SDS011;6302;42.624;23.334;2023-09-30T02:13:42;7.43;;;4.97;;
12474;SDS011;6302;42.624;23.334;2023-09-30T02:16:12;6.17;;;4.63;;
12474;SDS011;6302;42.624;23.334;2023-09-30T02:18:40;7.13;;;4.70;;
12474;SDS011;6302;42.624;23.334;2023-09-30T02:21:10;7.97;;;5.93;;
12474;SDS011;6302;42.624;23.334;2023-09-30T02:23:36;11.17;;;5.23;;
12474;SDS011;6302;42.624;23.334;2023-09-30T02:26:03;7.20;;;5.60;;
12474;SDS011;6302;42.624;23.334;2023-09-30T02:28:30;9.10;;;5.47;;
12474;SDS011;6302;42.624;23.334;2023-09-30T02:30:59;10.23;;;5.30;;
12474;SDS011;6302;42.624;23.334;2023-09-30T02:33:26;8.77;;;5.00;;
12474;SDS011;6302;42.624;23.334;2023-09-30T02:35:52;8.80;;;5.13;;
12474;SDS011;6302;42.624;23.334;2023-09-30T02:38:19;8.80;;;5.30;;
12474;SDS011;6302;42.624;23.334;2023-09-30T02:40:48;10.77;;;5.00;;
12474;SDS011;6302;42.624;23.334;2023-09-30T02:43:15;9.87;;;5.03;;
12474;SDS011;6302;42.624;23.334;2023-09-30T02:45:42;8.60;;;5.10;;
12474;SDS011;6302;42.624;23.334;2023-09-30T02:48:10;9.17;;;5.47;;
12474;SDS011;6302;42.624;23.334;2023-09-30T02:50:36;11.87;;;5.30;;
12474;SDS011;6302;42.624;23.334;2023-09-30T02:53:04;9.37;;;5.90;;
12474;SDS011;6302;42.624;23.334;2023-09-30T02:55:31;8.10;;;4.80;;
12474;SDS011;6302;42.624;23.334;2023-09-30T02:57:58;8.53;;;5.53;;
12474;SDS011;6302;42.624;23.334;2023-09-30T03:00:26;10.17;;;4.90;;
12474;SDS011;6302;42.624;23.334;2023-09-30T03:02:59;9.97;;;6.03;;
12474;SDS011;6302;42.624;23.334;2023-09-30T03:05:28;7.87;;;5.87;;
12474;SDS011;6302;42.624;23.334;2023-09-30T03:07:58;7.50;;;5.90;;
12474;SDS011;6302;42.624;23.334;2023-09-30T03:10:26;8.53;;;5.37;;
12474;SDS011;6302;42.624;23.334;2023-09-30T03:12:54;8.43;;;4.97;;
12474;SDS011;6302;42.624;23.334;2023-09-30T03:15:21;9.13;;;5.63;;
12474;SDS011;6302;42.624;23.334;2023-09-30T03:17:48;8.50;;;5.43;;
12474;SDS011;6302;42.624;23.334;2023-09-30T03:20:15;7.00;;;4.83;;
12474;SDS011;6302;42.624;23.334;2023-09-30T03:22:46;6.03;;;5.03;;
12474;SDS011;6302;42.624;23.334;2023-09-30T03:25:14;8.63;;;5.17;;
12474;SDS011;6302;42.624;23.334;2023-09-30T03:27:42;6.90;;;4.83;;
12474;SDS011;6302;42.624;23.334;2023-09-30T03:30:11;9.53;;;5.20;;
12474;SDS011;6302;42.624;23.334;2023-09-30T03:32:40;10.60;;;5.50;;
12474;SDS011;6302;42.624;23.334;2023-09-30T03:35:07;8.43;;;5.57;;
12474;SDS011;6302;42.624;23.334;2023-09-30T03:37:36;9.07;;;5.30;;
12474;SDS011;6302;42.624;23.334;2023-09-30T03:40:05;5.83;;;4.67;;
12474;SDS011;6302;42.624;23.334;2023-09-30T03:42:38;6.43;;;4.70;;
12474;SDS011;6302;42.624;23.334;2023-09-30T03:45:07;7.27;;;5.13;;
12474;SDS011;6302;42.624;23.334;2023-09-30T03:47:35;12.10;;;5.53;;
12474;SDS011;6302;42.624;23.334;2023-09-30T03:50:03;7.57;;;5.47;;
12474;SDS011;6302;42.624;23.334;2023-09-30T03:52:30;11.10;;;6.43;;
12474;SDS011;6302;42.624;23.334;2023-09-30T03:54:59;12.50;;;6.37;;
12474;SDS011;6302;42.624;23.334;2023-09-30T03:57:31;14.97;;;6.57;;
12474;SDS011;6302;42.624;23.334;2023-09-30T03:59:58;6.40;;;5.80;;
12474;SDS011;6302;42.624;23.334;2023-09-30T04:02:25;15.07;;;6.73;;
12474;SDS011;6302;42.624;23.334;2023-09-30T04:04:52;9.77;;;6.23;;
12474;SDS011;6302;42.624;23.334;2023-09-30T04:07:21;12.93;;;5.77;;
12474;SDS011;6302;42.624;23.334;2023-09-30T04:09:52;8.70;;;5.90;;
12474;SDS011;6302;42.624;23.334;2023-09-30T04:12:20;9.00;;;6.03;;
12474;SDS011;6302;42.624;23.334;2023-09-30T04:14:50;8.43;;;6.30;;
12474;SDS011;6302;42.624;23.334;2023-09-30T04:17:17;9.50;;;6.47;;
12474;SDS011;6302;42.624;23.334;2023-09-30T04:19:43;9.80;;;7.00;;
12474;SDS011;6302;42.624;23.334;2023-09-30T04:22:10;9.07;;;6.30;;
12474;SDS011;6302;42.624;23.334;2023-09-30T04:24:38;8.93;;;6.63;;
12474;SDS011;6302;42.624;23.334;2023-09-30T04:27:04;9.80;;;7.57;;
12474;SDS011;6302;42.624;23.334;2023-09-30T04:29:32;10.57;;;7.50;;
12474;SDS011;6302;42.624;23.334;2023-09-30T04:32:01;9.57;;;6.83;;
12474;SDS011;6302;42.624;23.334;2023-09-30T04:34:28;12.10;;;8.20;;
12474;SDS011;6302;42.624;23.334;2023-09-30T04:36:54;13.53;;;8.23;;
12474;SDS011;6302;42.624;23.334;2023-09-30T04:39:21;10.67;;;7.57;;
12474;SDS011;6302;42.624;23.334;2023-09-30T04:41:48;8.90;;;7.87;;
12474;SDS011;6302;42.624;23.334;2023-09-30T04:44:15;10.43;;;8.00;;
12474;SDS011;6302;42.624;23.334;2023-09-30T04:46:42;10.20;;;8.07;;
12474;SDS011;6302;42.624;23.334;2023-09-30T04:49:12;12.53;;;7.73;;
12474;SDS011;6302;42.624;23.334;2023-09-30T04:51:43;9.73;;;6.60;;
12474;SDS011;6302;42.624;23.334;2023-09-30T04:54:09;12.73;;;7.10;;
12474;SDS011;6302;42.624;23.334;2023-09-30T04:56:36;11.63;;;7.07;;
12474;SDS011;6302;42.624;23.334;2023-09-30T04:59:04;7.23;;;6.13;;
12474;SDS011;6302;42.624;23.334;2023-09-30T05:01:31;12.60;;;6.80;;
12474;SDS011;6302;42.624;23.334;2023-09-30T05:03:57;12.33;;;7.07;;
12474;SDS011;6302;42.624;23.334;2023-09-30T05:06:25;9.60;;;5.90;;
12474;SDS011;6302;42.624;23.334;2023-09-30T05:08:52;10.87;;;6.87;;
12474;SDS011;6302;42.624;23.334;2023-09-30T05:11:20;14.00;;;7.00;;
12474;SDS011;6302;42.624;23.334;2023-09-30T05:13:47;11.50;;;7.37;;
12474;SDS011;6302;42.624;23.334;2023-09-30T05:16:14;12.47;;;7.80;;
12474;SDS011;6302;42.624;23.334;2023-09-30T05:18:43;12.03;;;7.13;;
12474;SDS011;6302;42.624;23.334;2023-09-30T05:21:10;12.33;;;7.60;;
12474;SDS011;6302;42.624;23.334;2023-09-30T05:23:38;11.57;;;7.63;;
12474;SDS011;6302;42.624;23.334;2023-09-30T05:26:05;10.77;;;7.10;;
12474;SDS011;6302;42.624;23.334;2023-09-30T05:28:32;12.00;;;7.13;;
12474;SDS011;6302;42.624;23.334;2023-09-30T05:30:59;12.43;;;6.73;;
12474;SDS011;6302;42.624;23.334;2023-09-30T05:33:27;8.00;;;5.90;;
12474;SDS011;6302;42.624;23.334;2023-09-30T05:35:54;12.87;;;7.40;;
12474;SDS011;6302;42.624;23.334;2023-09-30T05:38:21;14.73;;;7.80;;
12474;SDS011;6302;42.624;23.334;2023-09-30T05:40:49;10.70;;;7.03;;
12474;SDS011;6302;42.624;23.334;2023-09-30T05:43:16;11.07;;;6.90;;
12474;SDS011;6302;42.624;23.334;2023-09-30T05:45:43;11.17;;;6.17;;
12474;SDS011;6302;42.624;23.334;2023-09-30T05:48:14;10.73;;;6.40;;
12474;SDS011;6302;42.624;23.334;2023-09-30T05:50:41;10.17;;;5.70;;
12474;SDS011;6302;42.624;23.334;2023-09-30T05:53:08;7.70;;;5.23;;
12474;SDS011;6302;42.624;23.334;2023-09-30T05:55:35;13.93;;;6.93;;
12474;SDS011;6302;42.624;23.334;2023-09-30T05:58:05;13.17;;;6.30;;
12474;SDS011;6302;42.624;23.334;2023-09-30T06:00:32;11.83;;;6.37;;
12474;SDS011;6302;42.624;23.334;2023-09-30T06:03:00;15.83;;;7.07;;
12474;SDS011;6302;42.624;23.334;2023-09-30T06:05:29;10.00;;;6.10;;
12474;SDS011;6302;42.624;23.334;2023-09-30T06:07:57;17.20;;;6.63;;
12474;SDS011;6302;42.624;23.334;2023-09-30T06:10:24;9.10;;;6.17;;
12474;SDS011;6302;42.624;23.334;2023-09-30T06:12:51;14.63;;;5.90;;
12474;SDS011;6302;42.624;23.334;2023-09-30T06:15:21;13.67;;;6.43;;
12474;SDS011;6302;42.624;23.334;2023-09-30T06:17:51;10.10;;;6.30;;
12474;SDS011;6302;42.624;23.334;2023-09-30T06:20:18;13.30;;;6.10;;
12474;SDS011;6302;42.624;23.334;2023-09-30T06:22:47;11.40;;;6.13;;
12474;SDS011;6302;42.624;23.334;2023-09-30T06:25:15;11.97;;;6.33;;
12474;SDS011;6302;42.624;23.334;2023-09-30T06:27:42;9.40;;;5.77;;
12474;SDS011;6302;42.624;23.334;2023-09-30T06:30:09;11.87;;;5.57;;
12474;SDS011;6302;42.624;23.334;2023-09-30T06:32:39;9.10;;;5.30;;
12474;SDS011;6302;42.624;23.334;2023-09-30T06:35:07;11.03;;;5.87;;
12474;SDS011;6302;42.624;23.334;2023-09-30T06:37:35;15.37;;;6.13;;
12474;SDS011;6302;42.624;23.334;2023-09-30T06:40:05;11.60;;;5.80;;
12474;SDS011;6302;42.624;23.334;2023-09-30T06:42:33;24.53;;;6.10;;
12474;SDS011;6302;42.624;23.334;2023-09-30T06:45:00;11.67;;;5.83;;
12474;SDS011;6302;42.624;23.334;2023-09-30T06:47:30;14.37;;;5.93;;
12474;SDS011;6302;42.624;23.334;2023-09-30T06:50:00;14.70;;;6.53;;
12474;SDS011;6302;42.624;23.334;2023-09-30T06:52:32;12.40;;;6.47;;
12474;SDS011;6302;42.624;23.334;2023-09-30T06:54:59;14.80;;;6.23;;
12474;SDS011;6302;42.624;23.334;2023-09-30T06:57:26;13.17;;;5.87;;
12474;SDS011;6302;42.624;23.334;2023-09-30T06:59:52;10.97;;;5.50;;
12474;SDS011;6302;42.624;23.334;2023-09-30T07:02:20;10.80;;;5.77;;
12474;SDS011;6302;42.624;23.334;2023-09-30T07:04:47;14.03;;;6.70;;
12474;SDS011;6302;42.624;23.334;2023-09-30T07:07:15;11.40;;;5.90;;
12474;SDS011;6302;42.624;23.334;2023-09-30T07:09:43;9.33;;;5.93;;
12474;SDS011;6302;42.624;23.334;2023-09-30T07:12:10;9.00;;;5.07;;
12474;SDS011;6302;42.624;23.334;2023-09-30T07:14:37;11.03;;;6.07;;
12474;SDS011;6302;42.624;23.334;2023-09-30T07:17:04;14.97;;;5.77;;
12474;SDS011;6302;42.624;23.334;2023-09-30T07:19:31;15.87;;;6.90;;
12474;SDS011;6302;42.624;23.334;2023-09-30T07:21:57;10.90;;;5.97;;
12474;SDS011;6302;42.624;23.334;2023-09-30T07:24:26;9.93;;;6.07;;
12474;SDS011;6302;42.624;23.334;2023-09-30T07:26:52;16.03;;;6.37;;
12474;SDS011;6302;42.624;23.334;2023-09-30T07:29:20;9.60;;;5.33;;
12474;SDS011;6302;42.624;23.334;2023-09-30T07:31:47;10.57;;;6.00;;
12474;SDS011;6302;42.624;23.334;2023-09-30T07:34:14;11.37;;;5.40;;
12474;SDS011;6302;42.624;23.334;2023-09-30T07:36:41;11.00;;;5.63;;
12474;SDS011;6302;42.624;23.334;2023-09-30T07:39:08;14.37;;;5.47;;
12474;SDS011;6302;42.624;23.334;2023-09-30T07:41:36;11.13;;;4.90;;
12474;SDS011;6302;42.624;23.334;2023-09-30T07:44:03;9.07;;;5.37;;
12474;SDS011;6302;42.624;23.334;2023-09-30T07:46:31;9.13;;;5.20;;
12474;SDS011;6302;42.624;23.334;2023-09-30T07:48:58;10.37;;;5.17;;
12474;SDS011;6302;42.624;23.334;2023-09-30T07:51:25;11.07;;;5.10;;
12474;SDS011;6302;42.624;23.334;2023-09-30T07:53:52;7.53;;;5.03;;
12474;SDS011;6302;42.624;23.334;2023-09-30T07:56:18;7.23;;;5.00;;
12474;SDS011;6302;42.624;23.334;2023-09-30T07:58:48;6.73;;;5.03;;
12474;SDS011;6302;42.624;23.334;2023-09-30T08:01:15;10.33;;;5.70;;
12474;SDS011;6302;42.624;23.334;2023-09-30T08:03:43;7.90;;;5.80;;
12474;SDS011;6302;42.624;23.334;2023-09-30T08:06:09;11.03;;;5.43;;
12474;SDS011;6302;42.624;23.334;2023-09-30T08:08:36;9.63;;;5.90;;
12474;SDS011;6302;42.624;23.334;2023-09-30T08:11:03;11.83;;;6.23;;
12474;SDS011;6302;42.624;23.334;2023-09-30T08:13:30;10.40;;;6.00;;
12474;SDS011;6302;42.624;23.334;2023-09-30T08:15:59;10.03;;;5.67;;
12474;SDS011;6302;42.624;23.334;2023-09-30T08:18:26;11.87;;;6.47;;
12474;SDS011;6302;42.624;23.334;2023-09-30T08:20:53;7.20;;;5.87;;
12474;SDS011;6302;42.624;23.334;2023-09-30T08:23:19;14.77;;;5.80;;
12474;SDS011;6302;42.624;23.334;2023-09-30T08:25:47;16.73;;;6.77;;
12474;SDS011;6302;42.624;23.334;2023-09-30T08:28:13;9.87;;;8.17;;
12474;SDS011;6302;42.624;23.334;2023-09-30T08:30:41;12.97;;;8.03;;
12474;SDS011;6302;42.624;23.334;2023-09-30T08:33:09;11.70;;;7.73;;
12474;SDS011;6302;42.624;23.334;2023-09-30T08:35:36;16.83;;;7.83;;
12474;SDS011;6302;42.624;23.334;2023-09-30T08:38:03;11.20;;;8.07;;
12474;SDS011;6302;42.624;23.334;2023-09-30T08:40:30;16.77;;;7.93;;
12474;SDS011;6302;42.624;23.334;2023-09-30T08:42:58;9.73;;;7.37;;
12474;SDS011;6302;42.624;23.334;2023-09-30T08:45:27;10.40;;;7.43;;
12474;SDS011;6302;42.624;23.334;2023-09-30T08:47:56;9.20;;;7.40;;
12474;SDS011;6302;42.624;23.334;2023-09-30T08:50:27;10.40;;;7.13;;
12474;SDS011;6302;42.624;23.334;2023-09-30T08:52:54;13.10;;;7.30;;
12474;SDS011;6302;42.624;23.334;2023-09-30T08:55:22;9.43;;;6.73;;
12474;SDS011;6302;42.624;23.334;2023-09-30T08:57:52;13.57;;;7.40;;
12474;SDS011;6302;42.624;23.334;2023-09-30T09:00:20;9.68;;;7.32;;
12474;SDS011;6302;42.624;23.334;2023-09-30T09:02:47;12.17;;;6.87;;
12474;SDS011;6302;42.624;23.334;2023-09-30T09:05:16;9.47;;;7.10;;
12474;SDS011;6302;42.624;23.334;2023-09-30T09:07:45;12.10;;;7.33;;
12474;SDS011;6302;42.624;23.334;2023-09-30T09:10:12;7.97;;;6.95;;
12474;SDS011;6302;42.624;23.334;2023-09-30T09:12:41;13.27;;;8.33;;
12474;SDS011;6302;42.624;23.334;2023-09-30T09:15:19;14.07;;;7.15;;
12474;SDS011;6302;42.624;23.334;2023-09-30T09:17:47;9.90;;;6.73;;
12474;SDS011;6302;42.624;23.334;2023-09-30T09:20:16;10.70;;;6.28;;
12474;SDS011;6302;42.624;23.334;2023-09-30T09:22:46;9.37;;;6.60;;
12474;SDS011;6302;42.624;23.334;2023-09-30T09:25:16;11.23;;;7.10;;
12474;SDS011;6302;42.624;23.334;2023-09-30T09:27:43;11.63;;;6.70;;
12474;SDS011;6302;42.624;23.334;2023-09-30T09:30:16;8.73;;;6.88;;
12474;SDS011;6302;42.624;23.334;2023-09-30T09:32:54;12.07;;;6.60;;
12474;SDS011;6302;42.624;23.334;2023-09-30T09:35:24;8.88;;;6.30;;
12474;SDS011;6302;42.624;23.334;2023-09-30T09:37:56;12.93;;;7.03;;
12474;SDS011;6302;42.624;23.334;2023-09-30T09:40:24;9.57;;;7.25;;
12474;SDS011;6302;42.624;23.334;2023-09-30T09:42:52;12.77;;;7.13;;
12474;SDS011;6302;42.624;23.334;2023-09-30T09:45:20;8.73;;;6.10;;
12474;SDS011;6302;42.624;23.334;2023-09-30T09:47:49;10.23;;;6.60;;
12474;SDS011;6302;42.624;23.334;2023-09-30T09:50:16;6.78;;;5.90;;
12474;SDS011;6302;42.624;23.334;2023-09-30T09:52:45;7.03;;;5.85;;
12474;SDS011;6302;42.624;23.334;2023-09-30T09:55:18;11.55;;;5.85;;
12474;SDS011;6302;42.624;23.334;2023-09-30T09:57:47;9.95;;;6.53;;
12474;SDS011;6302;42.624;23.334;2023-09-30T10:00:15;9.17;;;6.33;;
12474;SDS011;6302;42.624;23.334;2023-09-30T10:02:44;9.50;;;6.20;;
12474;SDS011;6302;42.624;23.334;2023-09-30T10:05:11;10.23;;;6.63;;
12474;SDS011;6302;42.624;23.334;2023-09-30T10:07:41;12.13;;;7.40;;
12474;SDS011;6302;42.624;23.334;2023-09-30T10:10:14;15.65;;;8.88;;
12474;SDS011;6302;42.624;23.334;2023-09-30T10:12:45;7.05;;;5.63;;
12474;SDS011;6302;42.624;23.334;2023-09-30T10:18:08;7.73;;;5.50;;
12474;SDS011;6302;42.624;23.334;2023-09-30T10:20:37;9.63;;;6.30;;
12474;SDS011;6302;42.624;23.334;2023-09-30T10:23:18;9.20;;;4.93;;
12474;SDS011;6302;42.624;23.334;2023-09-30T10:25:47;14.07;;;5.40;;
12474;SDS011;6302;42.624;23.334;2023-09-30T10:31:13;13.13;;;5.00;;
12474;SDS011;6302;42.624;23.334;2023-09-30T10:36:47;10.38;;;4.90;;
12474;SDS011;6302;42.624;23.334;2023-09-30T10:51:09;5.30;;;3.97;;
12474;SDS011;6302;42.624;23.334;2023-09-30T10:53:41;11.57;;;4.43;;
12474;SDS011;6302;42.624;23.334;2023-09-30T10:56:09;5.47;;;4.23;;
12474;SDS011;6302;42.624;23.334;2023-09-30T10:58:40;7.30;;;4.18;;
12474;SDS011;6302;42.624;23.334;2023-09-30T11:01:08;6.70;;;3.93;;
12474;SDS011;6302;42.624;23.334;2023-09-30T11:03:35;10.70;;;3.80;;
12474;SDS011;6302;42.624;23.334;2023-09-30T11:06:02;8.40;;;3.60;;
12474;SDS011;6302;42.624;23.334;2023-09-30T11:08:29;8.47;;;4.37;;
12474;SDS011;6302;42.624;23.334;2023-09-30T11:10:56;8.48;;;4.10;;
12474;SDS011;6302;42.624;23.334;2023-09-30T11:13:30;6.20;;;3.53;;
12474;SDS011;6302;42.624;23.334;2023-09-30T11:16:03;12.37;;;3.80;;
12474;SDS011;6302;42.624;23.334;2023-09-30T11:18:31;6.03;;;3.50;;
12474;SDS011;6302;42.624;23.334;2023-09-30T11:21:04;5.83;;;3.97;;
12474;SDS011;6302;42.624;23.334;2023-09-30T11:23:33;4.13;;;3.35;;
12474;SDS011;6302;42.624;23.334;2023-09-30T11:26:00;7.03;;;3.55;;
12474;SDS011;6302;42.624;23.334;2023-09-30T11:28:35;8.07;;;5.32;;
12474;SDS011;6302;42.624;23.334;2023-09-30T11:31:07;4.17;;;3.77;;
12474;SDS011;6302;42.624;23.334;2023-09-30T11:33:46;6.60;;;4.47;;
12474;SDS011;6302;42.624;23.334;2023-09-30T11:36:14;5.43;;;3.33;;
12474;SDS011;6302;42.624;23.334;2023-09-30T11:38:44;10.68;;;4.35;;
12474;SDS011;6302;42.624;23.334;2023-09-30T11:41:11;6.43;;;3.70;;
12474;SDS011;6302;42.624;23.334;2023-09-30T11:43:39;10.20;;;4.03;;
12474;SDS011;6302;42.624;23.334;2023-09-30T11:46:26;5.45;;;4.20;;
12474;SDS011;6302;42.624;23.334;2023-09-30T11:48:56;9.13;;;4.60;;
12474;SDS011;6302;42.624;23.334;2023-09-30T11:51:25;8.10;;;4.40;;
12474;SDS011;6302;42.624;23.334;2023-09-30T11:53:52;10.47;;;4.47;;
12474;SDS011;6302;42.624;23.334;2023-09-30T11:56:19;10.07;;;4.23;;
12474;SDS011;6302;42.624;23.334;2023-09-30T11:58:47;4.43;;;4.00;;
12474;SDS011;6302;42.624;23.334;2023-09-30T12:01:16;10.37;;;4.93;;
12474;SDS011;6302;42.624;23.334;2023-09-30T12:03:48;4.57;;;4.17;;
12474;SDS011;6302;42.624;23.334;2023-09-30T12:06:17;5.15;;;4.32;;
12474;SDS011;6302;42.624;23.334;2023-09-30T12:08:47;7.57;;;4.75;;
12474;SDS011;6302;42.624;23.334;2023-09-30T12:11:17;5.57;;;4.18;;
12474;SDS011;6302;42.624;23.334;2023-09-30T12:13:44;9.30;;;5.18;;
12474;SDS011;6302;42.624;23.334;2023-09-30T12:16:14;11.53;;;6.20;;
12474;SDS011;6302;42.624;23.334;2023-09-30T12:18:41;7.40;;;5.20;;
12474;SDS011;6302;42.624;23.334;2023-09-30T12:21:09;10.13;;;5.30;;
12474;SDS011;6302;42.624;23.334;2023-09-30T12:23:36;6.93;;;4.28;;
12474;SDS011;6302;42.624;23.334;2023-09-30T12:26:03;5.97;;;4.40;;
12474;SDS011;6302;42.624;23.334;2023-09-30T12:28:30;5.70;;;4.57;;
12474;SDS011;6302;42.624;23.334;2023-09-30T12:30:58;9.18;;;4.18;;
12474;SDS011;6302;42.624;23.334;2023-09-30T12:33:27;10.32;;;4.32;;
12474;SDS011;6302;42.624;23.334;2023-09-30T12:35:55;9.50;;;4.55;;
12474;SDS011;6302;42.624;23.334;2023-09-30T12:38:23;4.85;;;4.32;;
12474;SDS011;6302;42.624;23.334;2023-09-30T12:40:52;5.10;;;4.60;;
12474;SDS011;6302;42.624;23.334;2023-09-30T12:43:19;5.97;;;4.70;;
12474;SDS011;6302;42.624;23.334;2023-09-30T12:45:47;7.35;;;4.55;;
12474;SDS011;6302;42.624;23.334;2023-09-30T12:48:14;9.50;;;4.72;;
12474;SDS011;6302;42.624;23.334;2023-09-30T12:50:42;6.93;;;4.72;;
12474;SDS011;6302;42.624;23.334;2023-09-30T12:53:09;5.72;;;4.47;;
12474;SDS011;6302;42.624;23.334;2023-09-30T12:55:37;10.27;;;4.78;;
12474;SDS011;6302;42.624;23.334;2023-09-30T12:58:04;10.52;;;5.18;;
12474;SDS011;6302;42.624;23.334;2023-09-30T13:00:31;9.07;;;5.50;;
12474;SDS011;6302;42.624;23.334;2023-09-30T13:02:59;6.70;;;4.65;;
12474;SDS011;6302;42.624;23.334;2023-09-30T13:05:26;9.93;;;4.75;;
12474;SDS011;6302;42.624;23.334;2023-09-30T13:07:54;7.10;;;5.20;;
12474;SDS011;6302;42.624;23.334;2023-09-30T13:10:21;9.77;;;4.75;;
12474;SDS011;6302;42.624;23.334;2023-09-30T13:12:49;7.22;;;4.60;;
12474;SDS011;6302;42.624;23.334;2023-09-30T13:15:18;5.47;;;4.97;;
12474;SDS011;6302;42.624;23.334;2023-09-30T13:17:46;9.85;;;4.80;;
12474;SDS011;6302;42.624;23.334;2023-09-30T13:20:13;6.07;;;4.15;;
12474;SDS011;6302;42.624;23.334;2023-09-30T13:22:40;9.25;;;4.82;;
12474;SDS011;6302;42.624;23.334;2023-09-30T13:25:07;5.28;;;4.55;;
12474;SDS011;6302;42.624;23.334;2023-09-30T13:27:37;9.32;;;4.45;;
12474;SDS011;6302;42.624;23.334;2023-09-30T13:30:06;9.52;;;4.68;;
12474;SDS011;6302;42.624;23.334;2023-09-30T13:32:34;8.55;;;4.63;;
12474;SDS011;6302;42.624;23.334;2023-09-30T13:35:01;9.07;;;4.53;;
12474;SDS011;6302;42.624;23.334;2023-09-30T13:37:29;7.47;;;4.72;;
12474;SDS011;6302;42.624;23.334;2023-09-30T13:39:58;7.65;;;4.50;;
12474;SDS011;6302;42.624;23.334;2023-09-30T13:42:25;7.72;;;4.68;;
12474;SDS011;6302;42.624;23.334;2023-09-30T13:44:52;9.13;;;4.88;;
12474;SDS011;6302;42.624;23.334;2023-09-30T13:47:20;6.63;;;4.60;;
12474;SDS011;6302;42.624;23.334;2023-09-30T13:49:47;9.75;;;5.45;;
12474;SDS011;6302;42.624;23.334;2023-09-30T13:52:14;8.95;;;5.15;;
12474;SDS011;6302;42.624;23.334;2023-09-30T13:54:41;7.53;;;5.05;;
12474;SDS011;6302;42.624;23.334;2023-09-30T13:57:10;8.98;;;5.00;;
12474;SDS011;6302;42.624;23.334;2023-09-30T13:59:36;5.70;;;5.03;;
12474;SDS011;6302;42.624;23.334;2023-09-30T14:02:03;9.38;;;5.45;;
12474;SDS011;6302;42.624;23.334;2023-09-30T14:04:31;12.05;;;5.45;;
12474;SDS011;6302;42.624;23.334;2023-09-30T14:07:00;7.30;;;5.13;;
12474;SDS011;6302;42.624;23.334;2023-09-30T14:09:27;9.32;;;5.35;;
12474;SDS011;6302;42.624;23.334;2023-09-30T14:11:54;9.60;;;5.50;;
12474;SDS011;6302;42.624;23.334;2023-09-30T14:14:23;9.00;;;5.30;;
12474;SDS011;6302;42.624;23.334;2023-09-30T14:16:50;6.32;;;4.88;;
12474;SDS011;6302;42.624;23.334;2023-09-30T14:19:17;6.15;;;4.72;;
12474;SDS011;6302;42.624;23.334;2023-09-30T14:21:46;6.30;;;5.00;;
12474;SDS011;6302;42.624;23.334;2023-09-30T14:24:14;6.85;;;4.80;;
12474;SDS011;6302;42.624;23.334;2023-09-30T14:26:40;9.25;;;5.40;;
12474;SDS011;6302;42.624;23.334;2023-09-30T14:29:09;9.95;;;5.18;;
12474;SDS011;6302;42.624;23.334;2023-09-30T14:31:37;13.32;;;5.28;;
12474;SDS011;6302;42.624;23.334;2023-09-30T14:34:04;10.48;;;4.72;;
12474;SDS011;6302;42.624;23.334;2023-09-30T14:36:31;5.45;;;4.90;;
12474;SDS011;6302;42.624;23.334;2023-09-30T14:39:01;8.35;;;4.95;;
12474;SDS011;6302;42.624;23.334;2023-09-30T14:41:30;5.97;;;4.38;;
12474;SDS011;6302;42.624;23.334;2023-09-30T14:43:58;7.80;;;4.10;;
12474;SDS011;6302;42.624;23.334;2023-09-30T14:46:25;7.65;;;4.97;;
12474;SDS011;6302;42.624;23.334;2023-09-30T14:48:52;5.95;;;4.38;;
12474;SDS011;6302;42.624;23.334;2023-09-30T14:51:22;5.07;;;4.10;;
12474;SDS011;6302;42.624;23.334;2023-09-30T14:53:49;7.60;;;4.93;;
12474;SDS011;6302;42.624;23.334;2023-09-30T14:56:17;6.07;;;4.78;;
12474;SDS011;6302;42.624;23.334;2023-09-30T14:58:44;12.23;;;4.50;;
12474;SDS011;6302;42.624;23.334;2023-09-30T15:01:12;6.85;;;4.65;;
12474;SDS011;6302;42.624;23.334;2023-09-30T15:03:39;8.68;;;4.10;;
12474;SDS011;6302;42.624;23.334;2023-09-30T15:06:06;8.13;;;4.43;;
12474;SDS011;6302;42.624;23.334;2023-09-30T15:08:34;7.33;;;4.77;;